Terminal Aerodrome Forecast
Issued by NWS Portland, OR

Home | Current Version | Previous Version | Text Only | Print | Product List | Glossary On
Versions: 1 2 3 4 5 6 7 8 9 10 11 12 13 14 15 16 17 18 19 20 21 22 23 24 25 26 27 28 29
000
FTUS46 KPQR 211140
TAFAST
TAF
KAST 211140Z 2112/2212 27010KT P6SM VCSH FEW025 BKN040 BKN050
     FM211600 29008KT P6SM SCT025 BKN045
     FM212100 31013KT P6SM SCT040
     FM220400 34006KT P6SM SCT150=

USA.gov is the U.S. government's official web portal to all federal, state and local government web resources and services.